Time;durP1;ratioP1;P1;durP2;ratioP2;P2;SDS_P1;SDS_P2;PMS_P1;PMS_P2;Temp;Humidity;BMP_temperature;BMP_pressure;BME280_temperature;BME280_humidity;BME280_pressure;Samples;Min_cycle;Max_cycle;Signal;HPM_P1;HPM_P2
2021/05/16 00:00:10;;;;;;;;;;;;;;;9.58;100.00;98890.63;1724200;83;20257;-70
2021/05/16 00:02:37;;;;;;;;;;;;;;;9.56;100.00;98890.08;1724067;83;20225;-71
2021/05/16 00:05:06;;;;;;;;;;;;;;;9.45;100.00;98892.70;1724004;83;21120;-70
2021/05/16 00:07:35;;;;;;;;;;;;;;;9.32;100.00;98889.72;1724040;83;20167;-70
2021/05/16 00:10:07;;;;;;;;;;;;;;;9.31;100.00;98894.79;1724354;83;20585;-70
2021/05/16 00:12:33;;;;;;;;;;;;;;;9.28;100.00;98884.06;1724180;83;20152;-70
2021/05/16 00:15:01;;;;;;;;;;;;;;;9.25;100.00;98884.59;1724272;83;20200;-70
2021/05/16 00:17:27;;;;;;;;;;;;;;;9.20;100.00;98884.03;1724235;83;21077;-70
2021/05/16 00:19:55;;;;;;;;;;;;;;;9.16;100.00;98885.64;1724164;83;20180;-70
2021/05/16 00:22:24;;;;;;;;;;;;;;;9.13;100.00;98892.84;1724052;83;20191;-70
2021/05/16 00:24:51;;;;;;;;;;;;;;;9.04;100.00;98883.71;1724278;83;20215;-69
2021/05/16 00:27:18;;;;;;;;;;;;;;;9.03;100.00;98886.09;1724286;83;20204;-71
2021/05/16 00:29:45;;;;;;;;;;;;;;;9.00;100.00;98890.64;1724339;83;20968;-70
2021/05/16 00:32:12;;;;;;;;;;;;;;;8.97;100.00;98887.95;1724252;83;20564;-70
2021/05/16 00:34:39;;;;;;;;;;;;;;;8.94;100.00;98884.46;1724178;83;20179;-69
2021/05/16 00:37:05;;;;;;;;;;;;;;;8.89;100.00;98891.63;1695187;83;20549;-70
2021/05/16 00:39:32;;;;;;;;;;;;;;;8.86;100.00;98890.81;1724050;83;20224;-70
2021/05/16 00:41:59;;;;;;;;;;;;;;;8.88;100.00;98896.19;1724281;83;21073;-69
2021/05/16 00:44:25;;;;;;;;;;;;;;;8.90;100.00;98895.94;1724113;83;20172;-70
2021/05/16 00:46:52;;;;;;;;;;;;;;;8.89;100.00;98898.32;1724176;83;20156;-70
2021/05/16 00:49:19;;;;;;;;;;;;;;;8.93;100.00;98892.20;1724143;83;20566;-70
2021/05/16 00:51:46;;;;;;;;;;;;;;;8.98;100.00;98892.22;1724327;83;20160;-71
2021/05/16 00:54:12;;;;;;;;;;;;;;;9.05;100.00;98888.52;1724172;83;21645;-69
2021/05/16 00:56:39;;;;;;;;;;;;;;;9.05;100.00;98887.98;1723976;83;20255;-70
2021/05/16 00:59:06;;;;;;;;;;;;;;;9.04;100.00;98895.76;1695609;83;20148;-70
2021/05/16 01:01:34;;;;;;;;;;;;;;;9.03;100.00;98886.63;1723991;83;20617;-71
2021/05/16 01:04:02;;;;;;;;;;;;;;;8.94;100.00;98894.33;1724312;83;20156;-71
2021/05/16 01:06:28;;;;;;;;;;;;;;;8.90;100.00;98898.61;1724116;83;21018;-70
2021/05/16 01:08:58;;;;;;;;;;;;;;;8.83;100.00;98902.84;1723950;83;20185;-71
2021/05/16 01:11:29;;;;;;;;;;;;;;;8.84;100.00;98907.66;1724324;83;20184;-71
2021/05/16 01:13:57;;;;;;;;;;;;;;;8.85;100.00;98906.08;1696390;83;20223;-71
2021/05/16 01:16:24;;;;;;;;;;;;;;;8.87;100.00;98899.11;1724157;83;20179;-71
2021/05/16 01:18:52;;;;;;;;;;;;;;;8.83;100.00;98898.03;1724126;83;21067;-70
2021/05/16 01:21:21;;;;;;;;;;;;;;;8.77;100.00;98893.98;1724185;83;20177;-71
2021/05/16 01:23:50;;;;;;;;;;;;;;;8.72;100.00;98889.94;1695941;83;20168;-70
2021/05/16 01:26:20;;;;;;;;;;;;;;;8.66;100.00;98891.50;1722942;83;20176;-71
2021/05/16 01:28:47;;;;;;;;;;;;;;;8.57;100.00;98897.84;1724346;83;20128;-71
2021/05/16 01:31:15;;;;;;;;;;;;;;;8.50;100.00;98903.94;1724152;83;21115;-70
2021/05/16 01:33:43;;;;;;;;;;;;;;;8.44;100.00;98902.30;1724061;83;20168;-70
2021/05/16 01:36:14;;;;;;;;;;;;;;;8.43;100.00;98915.38;1695289;83;20553;-71
2021/05/16 01:38:42;;;;;;;;;;;;;;;8.35;100.00;98909.94;1723942;83;20184;-70
2021/05/16 01:41:09;;;;;;;;;;;;;;;8.30;100.00;98910.70;1723986;83;20474;-70
2021/05/16 01:43:39;;;;;;;;;;;;;;;8.30;100.00;98910.70;1723572;83;21888;-71
2021/05/16 01:46:06;;;;;;;;;;;;;;;8.33;100.00;98914.22;1724048;83;20196;-71
2021/05/16 01:48:33;;;;;;;;;;;;;;;8.34;100.00;98911.81;1724097;83;20264;-70
2021/05/16 01:51:00;;;;;;;;;;;;;;;8.29;100.00;98907.77;1724222;83;20588;-71
2021/05/16 01:53:28;;;;;;;;;;;;;;;8.22;100.00;98908.50;1724225;83;20172;-70
2021/05/16 01:55:55;;;;;;;;;;;;;;;8.14;100.00;98903.63;1723968;83;21861;-71
2021/05/16 01:58:21;;;;;;;;;;;;;;;8.09;100.00;98911.06;1724139;83;20151;-70
2021/05/16 02:00:50;;;;;;;;;;;;;;;8.07;100.00;98917.72;1724057;83;20143;-69
2021/05/16 02:03:18;;;;;;;;;;;;;;;8.00;100.00;98918.45;1719026;83;20168;-71
2021/05/16 02:05:47;;;;;;;;;;;;;;;7.94;100.00;98913.59;1724152;83;20172;-72
2021/05/16 02:08:14;;;;;;;;;;;;;;;7.89;100.00;98909.53;1695932;83;21902;-70
2021/05/16 02:10:41;;;;;;;;;;;;;;;7.87;100.00;98907.64;1724044;83;20188;-69
2021/05/16 02:13:12;;;;;;;;;;;;;;;7.86;100.00;98914.02;1724127;83;20175;-70
2021/05/16 02:15:42;;;;;;;;;;;;;;;7.85;100.00;98917.77;1724206;83;20179;-70
2021/05/16 02:18:15;;;;;;;;;;;;;;;7.87;100.00;98908.98;1724199;83;20207;-70
2021/05/16 02:20:44;;;;;;;;;;;;;;;7.90;100.00;98911.14;1724113;83;21046;-70
2021/05/16 02:23:11;;;;;;;;;;;;;;;7.94;100.00;98921.08;1723917;83;20239;-69
2021/05/16 02:25:39;;;;;;;;;;;;;;;7.94;100.00;98922.41;1723996;83;20533;-70
2021/05/16 02:28:08;;;;;;;;;;;;;;;7.94;100.00;98922.41;1722785;83;20486;-69
2021/05/16 02:30:35;;;;;;;;;;;;;;;7.94;100.00;98929.09;1724083;83;20152;-69
2021/05/16 02:33:02;;;;;;;;;;;;;;;7.98;100.00;98935.27;1724097;83;21705;-69
2021/05/16 02:35:29;;;;;;;;;;;;;;;7.98;100.00;98936.06;1724087;83;20183;-70
2021/05/16 02:37:58;;;;;;;;;;;;;;;7.96;100.00;98938.17;1722973;83;20557;-70
2021/05/16 02:40:25;;;;;;;;;;;;;;;7.97;100.00;98941.67;1723986;83;20168;-70
2021/05/16 02:42:52;;;;;;;;;;;;;;;7.99;100.00;98937.69;1724049;83;20593;-70
2021/05/16 02:45:22;;;;;;;;;;;;;;;8.04;100.00;98936.94;1724185;83;21045;-70
2021/05/16 02:47:51;;;;;;;;;;;;;;;8.12;100.00;98941.83;1724004;83;20220;-70
2021/05/16 02:50:20;;;;;;;;;;;;;;;8.22;100.00;98945.92;1724152;83;20164;-68
2021/05/16 02:52:53;;;;;;;;;;;;;;;8.21;100.00;98940.31;1723265;83;20160;-70
2021/05/16 02:55:22;;;;;;;;;;;;;;;8.25;100.00;98937.39;1724107;83;20596;-70
2021/05/16 02:57:50;;;;;;;;;;;;;;;8.32;100.00;98936.66;1724143;83;21125;-70
2021/05/16 03:00:19;;;;;;;;;;;;;;;8.44;100.00;98939.20;1724006;83;20180;-69
2021/05/16 03:02:46;;;;;;;;;;;;;;;8.57;100.00;98940.64;1724244;83;20581;-70
2021/05/16 03:05:14;;;;;;;;;;;;;;;8.66;100.00;98933.77;1724049;83;20184;-69
2021/05/16 03:07:42;;;;;;;;;;;;;;;8.75;100.00;98932.77;1724125;83;20171;-70
2021/05/16 03:10:10;;;;;;;;;;;;;;;8.88;100.00;98936.87;1724111;83;21090;-69
2021/05/16 03:12:37;;;;;;;;;;;;;;;8.91;100.00;98946.51;1724109;83;20179;-70
2021/05/16 03:15:04;;;;;;;;;;;;;;;8.92;100.00;98948.68;1695371;83;20215;-70
2021/05/16 03:17:31;;;;;;;;;;;;;;;8.97;100.00;98948.71;1724051;83;20279;-69
2021/05/16 03:20:00;;;;;;;;;;;;;;;9.06;100.00;98949.02;1724173;83;20147;-69
2021/05/16 03:22:27;;;;;;;;;;;;;;;9.09;100.00;98961.88;1724343;83;21594;-69
2021/05/16 03:24:54;;;;;;;;;;;;;;;9.11;100.00;98959.22;1724035;83;20541;-69
2021/05/16 03:27:21;;;;;;;;;;;;;;;9.16;100.00;98966.48;1724006;83;20207;-70
2021/05/16 03:29:48;;;;;;;;;;;;;;;9.17;100.00;98971.59;1724184;83;20180;-70
2021/05/16 03:32:15;;;;;;;;;;;;;;;9.20;100.00;98967.58;1724155;83;20183;-70
2021/05/16 03:34:41;;;;;;;;;;;;;;;9.27;100.00;98970.84;1724137;83;21006;-69
2021/05/16 03:37:08;;;;;;;;;;;;;;;9.36;100.00;98970.63;1724115;83;20167;-69
2021/05/16 03:39:34;;;;;;;;;;;;;;;9.46;100.00;98972.56;1724132;83;20156;-69
2021/05/16 03:42:01;;;;;;;;;;;;;;;9.57;100.00;98980.09;1724271;83;20569;-69
2021/05/16 03:44:27;;;;;;;;;;;;;;;9.64;100.00;98990.05;1724404;83;20156;-70
2021/05/16 03:46:54;;;;;;;;;;;;;;;9.72;100.00;98977.48;1724333;83;22009;-70
2021/05/16 03:49:21;;;;;;;;;;;;;;;9.81;100.00;98977.79;1724063;83;20558;-70
2021/05/16 03:51:48;;;;;;;;;;;;;;;9.98;100.00;98978.38;1724273;83;20605;-69
2021/05/16 03:54:15;;;;;;;;;;;;;;;10.06;100.00;98972.50;1695298;83;20124;-69
2021/05/16 03:56:42;;;;;;;;;;;;;;;10.14;100.00;98971.71;1724243;83;20164;-70
2021/05/16 03:59:08;;;;;;;;;;;;;;;10.22;100.00;98972.55;1724332;83;21660;-70
2021/05/16 04:01:36;;;;;;;;;;;;;;;10.40;100.00;98972.60;1724102;83;20132;-70
2021/05/16 04:04:03;;;;;;;;;;;;;;;10.66;100.00;98968.06;1724196;83;20187;-69
2021/05/16 04:06:30;;;;;;;;;;;;;;;10.88;100.00;98973.16;1724250;83;20195;-70
2021/05/16 04:08:57;;;;;;;;;;;;;;;11.08;100.00;98982.53;1724202;83;20211;-70
2021/05/16 04:11:23;;;;;;;;;;;;;;;11.38;100.00;98977.63;1724213;83;21050;-70
2021/05/16 04:13:52;;;;;;;;;;;;;;;11.55;100.00;98984.57;1724023;83;20546;-71
2021/05/16 04:16:19;;;;;;;;;;;;;;;11.72;100.00;98980.22;1724351;83;20147;-71
2021/05/16 04:18:47;;;;;;;;;;;;;;;11.89;100.00;98983.94;1724082;83;20649;-70
2021/05/16 04:21:14;;;;;;;;;;;;;;;12.06;100.00;98988.42;1724279;83;20171;-70
2021/05/16 04:23:40;;;;;;;;;;;;;;;12.13;100.00;98985.44;1724202;83;21488;-71
2021/05/16 04:26:07;;;;;;;;;;;;;;;12.22;100.00;98990.48;1724196;83;20164;-69
2021/05/16 04:28:34;;;;;;;;;;;;;;;12.31;100.00;98986.13;1724165;83;20152;-69
2021/05/16 04:31:01;;;;;;;;;;;;;;;12.38;100.00;98987.17;1724138;83;20179;-71
2021/05/16 04:33:29;;;;;;;;;;;;;;;12.42;100.00;98981.47;1724269;83;20180;-71
2021/05/16 04:35:59;;;;;;;;;;;;;;;12.64;100.00;98981.04;1724142;83;21102;-71
2021/05/16 04:38:27;;;;;;;;;;;;;;;12.97;100.00;98984.02;1724153;83;20179;-71
2021/05/16 04:40:54;;;;;;;;;;;;;;;13.16;100.00;98985.47;1724123;83;20160;-71
2021/05/16 04:43:23;;;;;;;;;;;;;;;13.25;100.00;98983.22;1724222;83;20164;-70
2021/05/16 04:45:51;;;;;;;;;;;;;;;13.44;100.00;98989.24;1724402;83;20860;-71
2021/05/16 04:48:17;;;;;;;;;;;;;;;13.60;100.00;98982.60;1725199;83;21133;-71
2021/05/16 04:50:44;;;;;;;;;;;;;;;13.84;100.00;98982.59;1724872;83;20176;-70
2021/05/16 04:53:10;;;;;;;;;;;;;;;14.20;100.00;98976.70;1724114;83;20168;-72
2021/05/16 04:55:38;;;;;;;;;;;;;;;14.49;100.00;98977.09;1724203;83;20192;-70
2021/05/16 04:58:07;;;;;;;;;;;;;;;14.60;100.00;98977.23;1724269;83;20128;-70
2021/05/16 05:00:34;;;;;;;;;;;;;;;14.67;100.00;98972.23;1724096;83;21087;-71
2021/05/16 05:03:02;;;;;;;;;;;;;;;14.74;100.00;98979.41;1724159;83;20163;-71
2021/05/16 05:05:30;;;;;;;;;;;;;;;14.87;100.00;98967.59;1695503;83;20180;-71
2021/05/16 05:07:57;;;;;;;;;;;;;;;15.09;100.00;98968.30;1724069;83;20585;-72
2021/05/16 05:10:24;;;;;;;;;;;;;;;15.29;100.00;98970.66;1724265;83;20183;-71
2021/05/16 05:12:51;;;;;;;;;;;;;;;15.32;100.00;98967.90;1724248;83;21076;-71
2021/05/16 05:15:17;;;;;;;;;;;;;;;15.38;100.00;98964.78;1724072;83;20518;-70
2021/05/16 05:17:46;;;;;;;;;;;;;;;15.49;100.00;98954.58;1724245;83;20191;-72
2021/05/16 05:20:13;;;;;;;;;;;;;;;15.74;100.00;98953.29;1724109;83;20148;-71
2021/05/16 05:22:40;;;;;;;;;;;;;;;15.92;100.00;98952.11;1724200;83;20144;-72
2021/05/16 05:25:08;;;;;;;;;;;;;;;16.06;100.00;98956.39;1724305;83;21095;-73
2021/05/16 05:27:35;;;;;;;;;;;;;;;16.24;100.00;98953.30;1724096;83;20152;-73
2021/05/16 05:30:04;;;;;;;;;;;;;;;16.27;100.00;98951.89;1724096;83;20215;-72
2021/05/16 05:32:31;;;;;;;;;;;;;;;16.12;100.00;98954.39;1724226;83;20529;-71
2021/05/16 05:34:58;;;;;;;;;;;;;;;15.97;100.00;98956.88;1723680;83;20188;-72
2021/05/16 05:37:25;;;;;;;;;;;;;;;16.09;100.00;98961.75;1724186;83;21127;-71
2021/05/16 05:39:55;;;;;;;;;;;;;;;16.33;100.00;98960.12;1723792;83;20211;-71
2021/05/16 05:42:27;;;;;;;;;;;;;;;16.49;100.00;98959.23;1723078;83;20176;-72
2021/05/16 05:44:57;;;;;;;;;;;;;;;16.55;100.00;98957.99;1723143;83;20168;-72
2021/05/16 05:47:24;;;;;;;;;;;;;;;16.70;100.00;98967.09;1724028;83;20172;-71
2021/05/16 05:49:53;;;;;;;;;;;;;;;16.99;100.00;98965.88;1723996;83;21237;-73
2021/05/16 05:52:24;;;;;;;;;;;;;;;17.27;100.00;98977.90;1724050;83;20187;-72
2021/05/16 05:54:50;;;;;;;;;;;;;;;17.44;100.00;98976.64;1695080;83;20225;-72
2021/05/16 05:57:17;;;;;;;;;;;;;;;17.77;100.00;98973.55;1724070;83;20362;-73
2021/05/16 05:59:44;;;;;;;;;;;;;;;18.14;100.00;98973.56;1723306;83;20578;-72
2021/05/16 06:02:11;;;;;;;;;;;;;;;18.46;100.00;98976.94;1723428;83;21023;-73
2021/05/16 06:04:38;;;;;;;;;;;;;;;18.52;100.00;98981.11;1723762;83;20220;-72
2021/05/16 06:07:06;;;;;;;;;;;;;;;18.46;100.00;98974.22;1694517;83;20183;-72
2021/05/16 06:09:35;;;;;;;;;;;;;;;18.85;100.00;98976.54;1723418;83;20593;-73
2021/05/16 06:12:06;;;;;;;;;;;;;;;18.94;100.00;98984.12;1723670;83;20256;-72
2021/05/16 06:14:34;;;;;;;;;;;;;;;18.87;100.00;98979.73;1723293;83;21080;-73
2021/05/16 06:17:04;;;;;;;;;;;;;;;19.03;100.00;98984.09;1723284;83;20187;-70
2021/05/16 06:19:38;;;;;;;;;;;;;;;19.20;100.00;98981.33;1723208;83;20148;-72
2021/05/16 06:22:13;;;;;;;;;;;;;;;19.38;100.00;98977.21;1723413;83;20231;-72
2021/05/16 06:24:46;;;;;;;;;;;;;;;19.73;99.05;98978.44;1723187;83;20236;-72
2021/05/16 06:27:18;;;;;;;;;;;;;;;19.85;97.69;98971.16;1723534;83;21122;-72
2021/05/16 06:29:48;;;;;;;;;;;;;;;19.86;98.67;98971.37;1689533;84;20220;-71
2021/05/16 06:32:18;;;;;;;;;;;;;;;19.82;94.25;98969.09;1723476;83;20199;-72
2021/05/16 06:34:45;;;;;;;;;;;;;;;20.11;95.30;98968.27;1723576;83;20509;-71
2021/05/16 06:37:13;;;;;;;;;;;;;;;20.17;93.74;98976.25;1722025;83;20272;-71
2021/05/16 06:39:43;;;;;;;;;;;;;;;20.55;92.92;98985.12;1723474;83;21611;-74
2021/05/16 06:42:09;;;;;;;;;;;;;;;20.90;89.08;98984.80;1723904;83;20252;-71
2021/05/16 06:44:36;;;;;;;;;;;;;;;20.69;86.63;98979.94;1723876;83;20160;-71
2021/05/16 06:47:03;;;;;;;;;;;;;;;20.44;85.58;98977.64;1723936;83;20151;-71
2021/05/16 06:49:29;;;;;;;;;;;;;;;20.54;86.30;98979.95;1723859;83;20613;-71
2021/05/16 06:51:56;;;;;;;;;;;;;;;20.96;85.12;98975.82;1723991;83;21062;-70
2021/05/16 06:54:23;;;;;;;;;;;;;;;21.03;84.44;98984.83;1723894;83;20192;-71
2021/05/16 06:56:50;;;;;;;;;;;;;;;21.01;83.51;98983.00;1724185;83;20569;-72
2021/05/16 06:59:20;;;;;;;;;;;;;;;20.96;83.14;98976.61;1724067;83;20188;-70
2021/05/16 07:01:47;;;;;;;;;;;;;;;20.91;85.35;98974.67;1723859;83;20211;-71
2021/05/16 07:04:14;;;;;;;;;;;;;;;21.26;83.59;98984.63;1724265;83;21640;-72
2021/05/16 07:06:40;;;;;;;;;;;;;;;21.43;82.01;98980.94;1723746;83;20180;-71
2021/05/16 07:09:10;;;;;;;;;;;;;;;21.37;79.71;98986.38;1723727;83;20701;-71
2021/05/16 07:11:37;;;;;;;;;;;;;;;21.39;80.39;98984.92;1724200;83;20156;-72
2021/05/16 07:14:05;;;;;;;;;;;;;;;21.53;81.79;98987.89;1724153;83;20160;-72
2021/05/16 07:16:33;;;;;;;;;;;;;;;21.67;78.94;98984.83;1723892;83;21093;-72
2021/05/16 07:19:02;;;;;;;;;;;;;;;21.53;81.08;98981.06;1724096;83;20546;-71
2021/05/16 07:21:28;;;;;;;;;;;;;;;21.91;80.62;98973.09;1724026;83;20172;-72
2021/05/16 07:24:00;;;;;;;;;;;;;;;22.40;74.88;98977.13;1724144;83;20542;-75
2021/05/16 07:26:27;;;;;;;;;;;;;;;22.52;73.96;98981.77;1723978;83;20227;-73
2021/05/16 07:28:55;;;;;;;;;;;;;;;22.02;73.61;98989.23;1722748;83;21656;-71
2021/05/16 07:31:22;;;;;;;;;;;;;;;21.74;74.57;98987.21;1694504;83;20167;-72
2021/05/16 07:33:48;;;;;;;;;;;;;;;21.75;72.13;98986.06;1723619;83;20578;-72
2021/05/16 07:36:15;;;;;;;;;;;;;;;22.13;72.27;98986.84;1723429;83;20147;-71
2021/05/16 07:38:42;;;;;;;;;;;;;;;22.78;69.61;98989.51;1723569;83;20652;-72
2021/05/16 07:41:10;;;;;;;;;;;;;;;22.87;64.46;98986.05;1723340;83;21096;-73
2021/05/16 07:43:38;;;;;;;;;;;;;;;22.92;64.42;98983.06;1723370;83;20144;-70
2021/05/16 07:46:05;;;;;;;;;;;;;;;22.65;65.92;98984.66;1723664;83;20185;-70
2021/05/16 07:48:34;;;;;;;;;;;;;;;22.40;63.22;98982.59;1723474;83;20203;-70
2021/05/16 07:51:01;;;;;;;;;;;;;;;22.68;63.00;98977.13;1722827;83;20719;-72
2021/05/16 07:53:28;;;;;;;;;;;;;;;22.81;61.60;98981.99;1723630;83;21671;-73
2021/05/16 07:55:56;;;;;;;;;;;;;;;22.54;59.85;98973.44;1723523;83;20167;-72
2021/05/16 07:58:23;;;;;;;;;;;;;;;22.33;62.82;98987.85;1723134;83;20144;-70
2021/05/16 08:00:51;;;;;;;;;;;;;;;22.28;61.86;98981.27;1723101;83;20164;-72
2021/05/16 08:03:18;;;;;;;;;;;;;;;22.48;59.79;98985.75;1723202;83;20711;-70
2021/05/16 08:05:52;;;;;;;;;;;;;;;22.71;60.38;98981.92;1723470;83;21081;-71
2021/05/16 08:08:20;;;;;;;;;;;;;;;22.81;59.41;98981.41;1723336;83;20191;-69
2021/05/16 08:10:48;;;;;;;;;;;;;;;22.72;56.58;98978.61;1723314;83;20176;-74
2021/05/16 08:13:17;;;;;;;;;;;;;;;22.69;58.48;98974.05;1723148;83;20271;-72
2021/05/16 08:15:46;;;;;;;;;;;;;;;22.92;58.56;98974.06;1722809;83;20231;-72
2021/05/16 08:18:13;;;;;;;;;;;;;;;23.01;57.88;98972.00;1723488;83;21581;-71
2021/05/16 08:20:41;;;;;;;;;;;;;;;22.96;56.77;98977.70;1723332;83;20151;-68
2021/05/16 08:23:10;;;;;;;;;;;;;;;23.08;56.47;98972.98;1723100;83;20172;-69
2021/05/16 08:25:39;;;;;;;;;;;;;;;23.23;54.25;98972.77;1723410;83;20171;-71
2021/05/16 08:28:09;;;;;;;;;;;;;;;23.62;55.61;98977.05;1723008;83;20152;-68
2021/05/16 08:30:38;;;;;;;;;;;;;;;23.68;55.82;98976.98;1723320;83;21606;-70
2021/05/16 08:33:06;;;;;;;;;;;;;;;23.91;54.31;98972.25;1694855;83;20187;-71
2021/05/16 08:35:34;;;;;;;;;;;;;;;23.84;53.65;98959.78;1723536;83;20235;-71
2021/05/16 08:38:00;;;;;;;;;;;;;;;23.53;52.93;98958.63;1723516;83;20152;-70
2021/05/16 08:40:28;;;;;;;;;;;;;;;23.47;55.56;98949.89;1723621;83;20163;-70
2021/05/16 08:42:57;;;;;;;;;;;;;;;23.64;55.10;98957.50;1723522;83;20671;-71
2021/05/16 08:45:26;;;;;;;;;;;;;;;23.69;54.34;98964.89;1723220;83;20708;-69
2021/05/16 08:47:53;;;;;;;;;;;;;;;24.00;51.62;98960.52;1723510;83;20621;-71
2021/05/16 08:50:20;;;;;;;;;;;;;;;23.82;53.42;98960.70;1723707;83;20318;-73
2021/05/16 08:52:47;;;;;;;;;;;;;;;23.82;54.41;98957.39;1723478;83;20219;-72
2021/05/16 08:55:15;;;;;;;;;;;;;;;23.94;51.31;98953.74;1723661;83;21106;-74
2021/05/16 08:57:41;;;;;;;;;;;;;;;24.11;52.32;98951.17;1723076;83;20160;-74
2021/05/16 09:00:20;;;;;;;;;;;;;;;23.91;51.73;98944.29;1694861;83;20533;-75
2021/05/16 09:03:07;;;;;;;;;;;;;;;24.18;50.25;98949.37;1723801;83;20192;-74
2021/05/16 09:05:40;;;;;;;;;;;;;;;24.46;49.55;98944.87;1723819;83;20172;-74
2021/05/16 09:08:17;;;;;;;;;;;;;;;25.03;49.89;98947.31;1724055;83;22724;-74
2021/05/16 09:10:48;;;;;;;;;;;;;;;25.19;45.86;98945.86;1695163;83;20223;-73
2021/05/16 09:13:18;;;;;;;;;;;;;;;25.07;46.28;98946.80;1723763;83;20573;-72
2021/05/16 09:16:04;;;;;;;;;;;;;;;24.40;47.76;98940.23;1723640;83;20176;-73
2021/05/16 09:18:36;;;;;;;;;;;;;;;24.33;47.32;98933.23;1724484;83;20179;-72
2021/05/16 09:21:33;;;;;;;;;;;;;;;24.97;47.27;98935.84;1695277;83;20995;-71
2021/05/16 09:24:05;;;;;;;;;;;;;;;25.53;45.51;98933.63;1723772;83;20207;-72
2021/05/16 09:26:55;;;;;;;;;;;;;;;25.52;45.67;98935.59;1724140;83;20144;-71
2021/05/16 09:29:33;;;;;;;;;;;;;;;25.43;46.72;98926.25;1724081;83;20183;-72
2021/05/16 09:32:02;;;;;;;;;;;;;;;25.07;45.55;98922.67;1724140;83;20577;-70
2021/05/16 09:34:32;;;;;;;;;;;;;;;25.24;43.65;98920.25;1724116;83;20863;-74
2021/05/16 09:36:58;;;;;;;;;;;;;;;25.37;43.65;98922.22;1724129;83;20135;-72
2021/05/16 09:39:31;;;;;;;;;;;;;;;25.00;46.07;98924.71;1723989;83;20470;-73
2021/05/16 09:42:07;;;;;;;;;;;;;;;25.51;42.43;98923.62;1724129;83;20147;-73
2021/05/16 09:44:39;;;;;;;;;;;;;;;26.17;42.33;98929.09;1724157;83;20556;-74
2021/05/16 09:47:22;;;;;;;;;;;;;;;25.45;41.92;98927.23;1724041;83;21510;-75
2021/05/16 09:49:55;;;;;;;;;;;;;;;24.78;43.85;98925.69;1723960;83;20216;-75
2021/05/16 09:52:27;;;;;;;;;;;;;;;24.43;44.65;98929.11;1723108;83;20656;-72
2021/05/16 09:55:07;;;;;;;;;;;;;;;24.04;45.49;98923.03;1724002;83;20578;-74
2021/05/16 09:57:37;;;;;;;;;;;;;;;24.17;46.23;98913.50;1724176;83;20184;-71
2021/05/16 10:00:08;;;;;;;;;;;;;;;23.96;46.18;98914.44;1723792;83;20549;-72
2021/05/16 10:02:35;;;;;;;;;;;;;;;23.66;47.60;98912.16;1722823;83;20148;-72
2021/05/16 10:05:02;;;;;;;;;;;;;;;24.03;46.50;98906.92;1723486;83;20214;-69
2021/05/16 10:07:29;;;;;;;;;;;;;;;24.56;46.20;98914.11;1723794;83;20232;-71
2021/05/16 10:09:57;;;;;;;;;;;;;;;24.81;44.53;98903.00;1723955;83;20164;-73
2021/05/16 10:12:24;;;;;;;;;;;;;;;25.32;45.50;98899.77;1723720;83;21070;-70
2021/05/16 10:15:03;;;;;;;;;;;;;;;25.79;43.29;98897.13;1723695;83;20152;-73
2021/05/16 10:17:31;;;;;;;;;;;;;;;25.56;43.51;98904.07;1723728;83;20601;-72
2021/05/16 10:19:57;;;;;;;;;;;;;;;25.09;44.02;98877.81;1723591;83;20569;-71
2021/05/16 10:22:28;;;;;;;;;;;;;;;24.48;44.09;98903.58;1723709;83;20180;-71
2021/05/16 10:24:57;;;;;;;;;;;;;;;24.56;44.49;98898.44;1723800;83;21663;-71
2021/05/16 10:27:37;;;;;;;;;;;;;;;24.93;42.99;98886.94;1723647;83;20195;-71
2021/05/16 10:30:06;;;;;;;;;;;;;;;25.54;42.68;98883.82;1722318;83;20231;-71
2021/05/16 10:32:38;;;;;;;;;;;;;;;25.63;42.96;98882.20;1723139;83;20168;-71
2021/05/16 10:35:08;;;;;;;;;;;;;;;25.66;41.90;98884.98;1723337;83;20156;-70
2021/05/16 10:37:50;;;;;;;;;;;;;;;25.13;43.17;98882.75;1723299;83;21082;-71
2021/05/16 10:40:30;;;;;;;;;;;;;;;24.45;43.90;98872.73;1723379;83;20216;-70
2021/05/16 10:42:59;;;;;;;;;;;;;;;24.04;45.02;98882.49;1723562;83;20557;-71
2021/05/16 10:45:45;;;;;;;;;;;;;;;24.06;44.23;98876.86;1723424;83;20179;-70
2021/05/16 10:48:13;;;;;;;;;;;;;;;24.31;43.46;98878.73;1723542;83;20334;-70
2021/05/16 10:50:50;;;;;;;;;;;;;;;24.06;43.96;98872.75;1723668;83;21107;-72
2021/05/16 10:53:21;;;;;;;;;;;;;;;23.93;44.40;98865.25;1723455;83;20219;-71
2021/05/16 10:56:04;;;;;;;;;;;;;;;23.95;45.19;98851.95;1723595;83;20152;-73
2021/05/16 10:58:36;;;;;;;;;;;;;;;24.47;45.58;98860.05;1723701;83;20156;-72
2021/05/16 11:01:08;;;;;;;;;;;;;;;25.03;42.77;98852.00;1723660;83;20260;-70
2021/05/16 11:03:48;;;;;;;;;;;;;;;25.33;40.49;98849.16;1723077;83;20255;-72
2021/05/16 11:06:18;;;;;;;;;;;;;;;25.77;40.68;98850.79;1723886;83;20179;-73
2021/05/16 11:08:52;;;;;;;;;;;;;;;26.29;41.02;98855.17;1719690;83;20586;-71
2021/05/16 11:11:40;;;;;;;;;;;;;;;26.58;39.15;98853.55;1723256;83;20280;-71
2021/05/16 11:14:23;;;;;;;;;;;;;;;26.69;37.39;98831.03;1723756;83;20578;-72
2021/05/16 11:16:52;;;;;;;;;;;;;;;26.71;37.32;98830.66;1723709;83;21098;-70
2021/05/16 11:19:22;;;;;;;;;;;;;;;26.63;37.89;98819.36;1723629;83;20608;-75
2021/05/16 11:21:48;;;;;;;;;;;;;;;26.04;39.10;98802.06;1723423;83;20124;-69
2021/05/16 11:24:16;;;;;;;;;;;;;;;25.77;37.54;98808.75;1723868;83;20347;-69
2021/05/16 11:26:44;;;;;;;;;;;;;;;25.95;37.38;98807.64;1723491;83;20605;-70
2021/05/16 11:29:18;;;;;;;;;;;;;;;25.65;38.38;98805.68;1723595;83;21009;-70
2021/05/16 11:31:45;;;;;;;;;;;;;;;25.49;37.85;98800.34;1694742;83;20144;-72
2021/05/16 11:34:14;;;;;;;;;;;;;;;25.15;39.32;98789.24;1722693;83;20585;-71
2021/05/16 11:36:41;;;;;;;;;;;;;;;25.46;40.08;98792.86;1695030;83;20172;-70
2021/05/16 11:39:08;;;;;;;;;;;;;;;25.74;38.78;98787.52;1722525;83;20203;-70
2021/05/16 11:41:43;;;;;;;;;;;;;;;25.41;37.78;98789.85;1722232;83;21741;-70
2021/05/16 11:44:14;;;;;;;;;;;;;;;25.10;39.18;98788.19;1722841;83;20192;-69
2021/05/16 11:46:46;;;;;;;;;;;;;;;24.81;39.80;98778.72;1723351;83;20167;-70
2021/05/16 11:49:15;;;;;;;;;;;;;;;24.72;41.29;98783.66;1723630;83;20131;-69
2021/05/16 11:51:44;;;;;;;;;;;;;;;24.56;42.22;98779.69;1722208;83;20267;-69
2021/05/16 11:54:12;;;;;;;;;;;;;;;24.50;43.08;98780.58;1723525;83;21081;-71
2021/05/16 11:56:43;;;;;;;;;;;;;;;24.55;41.96;98776.74;1721928;83;20164;-69
2021/05/16 11:59:15;;;;;;;;;;;;;;;24.24;42.10;98767.54;1723568;83;20152;-71
2021/05/16 12:01:43;;;;;;;;;;;;;;;24.25;41.92;98766.95;1723380;83;20330;-69
2021/05/16 12:04:17;;;;;;;;;;;;;;;24.14;41.79;98759.34;1695106;83;20171;-71
2021/05/16 12:06:52;;;;;;;;;;;;;;;24.10;42.02;98759.05;1723081;83;21132;-71
2021/05/16 12:09:26;;;;;;;;;;;;;;;24.15;43.19;98764.23;1722328;83;20176;-70
2021/05/16 12:11:56;;;;;;;;;;;;;;;24.02;42.70;98750.48;1723855;83;20148;-71
2021/05/16 12:14:30;;;;;;;;;;;;;;;23.99;42.72;98756.13;1723768;83;20179;-70
2021/05/16 12:16:58;;;;;;;;;;;;;;;24.17;42.70;98749.59;1723540;83;20754;-73
2021/05/16 12:19:28;;;;;;;;;;;;;;;24.43;40.64;98743.98;1723818;83;21068;-72
2021/05/16 12:22:02;;;;;;;;;;;;;;;24.39;41.60;98733.72;1723689;83;20168;-72
2021/05/16 12:24:32;;;;;;;;;;;;;;;24.31;40.85;98733.98;1723198;83;20164;-72
2021/05/16 12:27:00;;;;;;;;;;;;;;;24.21;41.51;98731.27;1723409;83;20244;-69
2021/05/16 12:29:27;;;;;;;;;;;;;;;24.23;42.12;98729.51;1723582;83;20172;-72
2021/05/16 12:31:55;;;;;;;;;;;;;;;24.16;42.19;98732.35;1723691;83;21148;-71
2021/05/16 12:34:26;;;;;;;;;;;;;;;24.25;43.25;98734.84;1723687;83;20203;-71
2021/05/16 12:36:58;;;;;;;;;;;;;;;24.22;43.49;98734.79;1723843;83;20562;-73
2021/05/16 12:39:45;;;;;;;;;;;;;;;24.25;41.95;98720.34;1723658;83;20152;-72
2021/05/16 12:42:31;;;;;;;;;;;;;;;24.07;42.38;98715.34;1723557;83;20255;-70
2021/05/16 12:45:20;;;;;;;;;;;;;;;23.88;42.11;98709.31;1723060;83;21555;-71
2021/05/16 12:48:05;;;;;;;;;;;;;;;23.81;43.73;98717.98;1723894;83;20171;-70
2021/05/16 12:50:39;;;;;;;;;;;;;;;23.70;43.46;98713.64;1688445;83;20521;-71
2021/05/16 12:56:14;;;;;;;;;;;;;;;23.70;44.46;98706.21;1723831;83;20183;-68
2021/05/16 12:59:10;;;;;;;;;;;;;;;23.66;43.75;98710.03;1723970;83;21096;-70